sensor_id;sensor_type;location;lat;lon;timestamp;P1;durP1;ratioP1;P2;durP2;ratioP2
75758;SDS011;64371;47.566;19.086;2023-04-01T00:00:56;1.88;;;1.00;;
75758;SDS011;64371;47.566;19.086;2023-04-01T00:04:00;4.75;;;1.23;;
75758;SDS011;64371;47.566;19.086;2023-04-01T00:07:04;1.90;;;1.20;;
75758;SDS011;64371;47.566;19.086;2023-04-01T00:10:07;2.60;;;1.20;;
75758;SDS011;64371;47.566;19.086;2023-04-01T00:13:10;1.67;;;0.68;;
75758;SDS011;64371;47.566;19.086;2023-04-01T00:16:12;1.95;;;1.00;;
75758;SDS011;64371;47.566;19.086;2023-04-01T00:19:23;2.83;;;0.95;;
75758;SDS011;64371;47.566;19.086;2023-04-01T00:22:25;1.47;;;0.70;;
75758;SDS011;64371;47.566;19.086;2023-04-01T00:25:28;3.83;;;0.73;;
75758;SDS011;64371;47.566;19.086;2023-04-01T00:28:31;2.22;;;0.90;;
75758;SDS011;64371;47.566;19.086;2023-04-01T00:31:36;1.45;;;0.65;;
75758;SDS011;64371;47.566;19.086;2023-04-01T00:34:38;1.83;;;0.70;;
75758;SDS011;64371;47.566;19.086;2023-04-01T00:37:41;2.33;;;0.80;;
75758;SDS011;64371;47.566;19.086;2023-04-01T00:40:45;1.90;;;0.68;;
75758;SDS011;64371;47.566;19.086;2023-04-01T00:43:49;2.47;;;0.80;;
75758;SDS011;64371;47.566;19.086;2023-04-01T00:46:53;2.08;;;0.70;;
75758;SDS011;64371;47.566;19.086;2023-04-01T00:49:55;1.90;;;0.90;;
75758;SDS011;64371;47.566;19.086;2023-04-01T00:52:58;1.53;;;0.90;;
75758;SDS011;64371;47.566;19.086;2023-04-01T00:56:04;2.05;;;0.70;;
75758;SDS011;64371;47.566;19.086;2023-04-01T00:59:13;1.13;;;0.63;;
75758;SDS011;64371;47.566;19.086;2023-04-01T01:02:18;1.70;;;0.93;;
75758;SDS011;64371;47.566;19.086;2023-04-01T01:05:23;2.28;;;1.27;;
75758;SDS011;64371;47.566;19.086;2023-04-01T01:12:39;2.72;;;1.00;;
75758;SDS011;64371;47.566;19.086;2023-04-01T01:15:54;1.10;;;0.63;;
75758;SDS011;64371;47.566;19.086;2023-04-01T01:19:12;1.25;;;0.63;;
75758;SDS011;64371;47.566;19.086;2023-04-01T01:25:47;3.17;;;1.30;;
75758;SDS011;64371;47.566;19.086;2023-04-01T01:38:52;1.40;;;0.80;;
75758;SDS011;64371;47.566;19.086;2023-04-01T01:41:56;2.60;;;0.90;;
75758;SDS011;64371;47.566;19.086;2023-04-01T01:45:03;2.50;;;0.90;;
75758;SDS011;64371;47.566;19.086;2023-04-01T01:48:07;2.83;;;0.80;;
75758;SDS011;64371;47.566;19.086;2023-04-01T01:51:11;3.60;;;1.00;;
75758;SDS011;64371;47.566;19.086;2023-04-01T01:54:14;1.58;;;0.80;;
75758;SDS011;64371;47.566;19.086;2023-04-01T01:57:21;2.40;;;0.70;;
75758;SDS011;64371;47.566;19.086;2023-04-01T02:00:33;1.75;;;0.77;;
75758;SDS011;64371;47.566;19.086;2023-04-01T02:03:37;2.15;;;0.90;;
75758;SDS011;64371;47.566;19.086;2023-04-01T02:06:46;1.38;;;0.63;;
75758;SDS011;64371;47.566;19.086;2023-04-01T02:09:54;2.97;;;1.15;;
75758;SDS011;64371;47.566;19.086;2023-04-01T02:12:57;2.43;;;0.70;;
75758;SDS011;64371;47.566;19.086;2023-04-01T02:16:06;2.60;;;0.88;;
75758;SDS011;64371;47.566;19.086;2023-04-01T02:19:15;1.63;;;0.80;;
75758;SDS011;64371;47.566;19.086;2023-04-01T02:22:26;2.65;;;0.57;;
75758;SDS011;64371;47.566;19.086;2023-04-01T02:25:33;1.33;;;0.60;;
75758;SDS011;64371;47.566;19.086;2023-04-01T02:28:38;2.00;;;0.70;;
75758;SDS011;64371;47.566;19.086;2023-04-01T02:31:43;1.17;;;0.50;;
75758;SDS011;64371;47.566;19.086;2023-04-01T02:34:46;1.40;;;0.60;;
75758;SDS011;64371;47.566;19.086;2023-04-01T02:37:50;2.83;;;0.88;;
75758;SDS011;64371;47.566;19.086;2023-04-01T02:40:56;2.13;;;0.60;;
75758;SDS011;64371;47.566;19.086;2023-04-01T02:44:01;2.10;;;0.70;;
75758;SDS011;64371;47.566;19.086;2023-04-01T02:47:04;1.65;;;0.75;;
75758;SDS011;64371;47.566;19.086;2023-04-01T02:50:07;2.30;;;0.80;;
75758;SDS011;64371;47.566;19.086;2023-04-01T02:53:10;2.05;;;0.70;;
75758;SDS011;64371;47.566;19.086;2023-04-01T02:56:13;1.98;;;0.70;;
75758;SDS011;64371;47.566;19.086;2023-04-01T02:59:15;1.70;;;0.83;;
75758;SDS011;64371;47.566;19.086;2023-04-01T03:02:17;1.25;;;0.90;;
75758;SDS011;64371;47.566;19.086;2023-04-01T03:05:20;1.60;;;0.75;;
75758;SDS011;64371;47.566;19.086;2023-04-01T03:08:23;1.98;;;1.00;;
75758;SDS011;64371;47.566;19.086;2023-04-01T03:11:25;1.85;;;0.70;;
75758;SDS011;64371;47.566;19.086;2023-04-01T03:14:28;2.20;;;0.77;;
75758;SDS011;64371;47.566;19.086;2023-04-01T03:17:31;2.30;;;0.80;;
75758;SDS011;64371;47.566;19.086;2023-04-01T03:20:34;9.75;;;5.68;;
75758;SDS011;64371;47.566;19.086;2023-04-01T03:23:36;1.85;;;0.73;;
75758;SDS011;64371;47.566;19.086;2023-04-01T03:26:38;1.02;;;0.63;;
75758;SDS011;64371;47.566;19.086;2023-04-01T03:29:41;5.90;;;3.83;;
75758;SDS011;64371;47.566;19.086;2023-04-01T03:32:43;1.67;;;1.17;;
75758;SDS011;64371;47.566;19.086;2023-04-01T03:35:46;2.30;;;1.10;;
75758;SDS011;64371;47.566;19.086;2023-04-01T03:38:48;3.50;;;1.30;;
75758;SDS011;64371;47.566;19.086;2023-04-01T03:42:01;1.55;;;0.95;;
75758;SDS011;64371;47.566;19.086;2023-04-01T03:45:04;2.50;;;1.17;;
75758;SDS011;64371;47.566;19.086;2023-04-01T03:48:07;2.28;;;1.00;;
75758;SDS011;64371;47.566;19.086;2023-04-01T03:51:09;2.72;;;1.35;;
75758;SDS011;64371;47.566;19.086;2023-04-01T03:54:11;3.05;;;1.20;;
75758;SDS011;64371;47.566;19.086;2023-04-01T03:57:14;1.70;;;1.10;;
75758;SDS011;64371;47.566;19.086;2023-04-01T04:00:16;3.60;;;1.30;;
75758;SDS011;64371;47.566;19.086;2023-04-01T04:03:25;1.70;;;0.60;;
75758;SDS011;64371;47.566;19.086;2023-04-01T04:06:28;2.30;;;0.90;;
75758;SDS011;64371;47.566;19.086;2023-04-01T04:09:31;2.50;;;0.80;;
75758;SDS011;64371;47.566;19.086;2023-04-01T04:12:34;2.40;;;0.60;;
75758;SDS011;64371;47.566;19.086;2023-04-01T04:15:36;3.30;;;0.90;;
75758;SDS011;64371;47.566;19.086;2023-04-01T04:18:41;1.05;;;0.60;;
75758;SDS011;64371;47.566;19.086;2023-04-01T04:21:43;1.60;;;0.70;;
75758;SDS011;64371;47.566;19.086;2023-04-01T04:24:46;1.13;;;0.52;;
75758;SDS011;64371;47.566;19.086;2023-04-01T04:27:48;1.02;;;0.55;;
75758;SDS011;64371;47.566;19.086;2023-04-01T04:30:51;2.40;;;0.70;;
75758;SDS011;64371;47.566;19.086;2023-04-01T04:33:54;3.50;;;0.63;;
75758;SDS011;64371;47.566;19.086;2023-04-01T04:36:57;2.92;;;0.98;;
75758;SDS011;64371;47.566;19.086;2023-04-01T04:40:04;2.70;;;1.02;;
75758;SDS011;64371;47.566;19.086;2023-04-01T04:43:09;1.77;;;1.20;;
75758;SDS011;64371;47.566;19.086;2023-04-01T04:46:13;2.97;;;1.20;;
75758;SDS011;64371;47.566;19.086;2023-04-01T04:49:16;2.28;;;1.30;;
75758;SDS011;64371;47.566;19.086;2023-04-01T04:52:18;2.00;;;1.05;;
75758;SDS011;64371;47.566;19.086;2023-04-01T04:55:20;3.90;;;1.90;;
75758;SDS011;64371;47.566;19.086;2023-04-01T04:58:32;5.03;;;2.78;;
75758;SDS011;64371;47.566;19.086;2023-04-01T05:01:36;3.63;;;2.23;;
75758;SDS011;64371;47.566;19.086;2023-04-01T05:04:38;3.05;;;1.70;;
75758;SDS011;64371;47.566;19.086;2023-04-01T05:07:43;3.85;;;1.70;;
75758;SDS011;64371;47.566;19.086;2023-04-01T05:10:46;4.65;;;2.95;;
75758;SDS011;64371;47.566;19.086;2023-04-01T05:13:49;13.63;;;7.88;;
75758;SDS011;64371;47.566;19.086;2023-04-01T05:16:52;12.07;;;6.90;;
75758;SDS011;64371;47.566;19.086;2023-04-01T05:19:56;11.38;;;6.45;;
75758;SDS011;64371;47.566;19.086;2023-04-01T05:23:00;22.45;;;10.65;;
75758;SDS011;64371;47.566;19.086;2023-04-01T05:26:07;22.15;;;12.10;;
75758;SDS011;64371;47.566;19.086;2023-04-01T05:29:12;23.25;;;14.10;;
75758;SDS011;64371;47.566;19.086;2023-04-01T05:32:16;8.57;;;5.00;;
75758;SDS011;64371;47.566;19.086;2023-04-01T05:35:18;5.32;;;1.75;;
75758;SDS011;64371;47.566;19.086;2023-04-01T05:38:20;2.80;;;1.10;;
75758;SDS011;64371;47.566;19.086;2023-04-01T05:41:24;2.47;;;0.80;;
75758;SDS011;64371;47.566;19.086;2023-04-01T05:44:26;2.10;;;1.02;;
75758;SDS011;64371;47.566;19.086;2023-04-01T05:47:48;3.00;;;0.80;;
75758;SDS011;64371;47.566;19.086;2023-04-01T05:50:52;2.17;;;0.88;;
75758;SDS011;64371;47.566;19.086;2023-04-01T05:53:54;2.05;;;0.80;;
75758;SDS011;64371;47.566;19.086;2023-04-01T05:56:56;2.45;;;0.85;;
75758;SDS011;64371;47.566;19.086;2023-04-01T05:59:59;2.25;;;1.25;;
75758;SDS011;64371;47.566;19.086;2023-04-01T06:03:01;2.03;;;1.20;;
75758;SDS011;64371;47.566;19.086;2023-04-01T06:06:11;3.55;;;0.90;;
75758;SDS011;64371;47.566;19.086;2023-04-01T06:09:18;3.05;;;1.00;;
75758;SDS011;64371;47.566;19.086;2023-04-01T06:12:32;1.08;;;0.52;;
75758;SDS011;64371;47.566;19.086;2023-04-01T06:15:50;1.23;;;0.50;;
75758;SDS011;64371;47.566;19.086;2023-04-01T06:19:22;1.57;;;0.63;;
75758;SDS011;64371;47.566;19.086;2023-04-01T06:22:53;2.97;;;1.33;;
75758;SDS011;64371;47.566;19.086;2023-04-01T06:26:03;1.42;;;0.75;;
75758;SDS011;64371;47.566;19.086;2023-04-01T06:33:23;1.83;;;0.70;;
75758;SDS011;64371;47.566;19.086;2023-04-01T06:46:26;1.65;;;0.80;;
75758;SDS011;64371;47.566;19.086;2023-04-01T06:57:49;1.52;;;1.13;;
75758;SDS011;64371;47.566;19.086;2023-04-01T07:00:58;1.63;;;0.75;;
75758;SDS011;64371;47.566;19.086;2023-04-01T07:04:12;5.47;;;1.13;;
75758;SDS011;64371;47.566;19.086;2023-04-01T07:07:33;5.78;;;0.90;;
75758;SDS011;64371;47.566;19.086;2023-04-01T07:14:05;1.25;;;0.70;;
75758;SDS011;64371;47.566;19.086;2023-04-01T07:17:28;2.28;;;0.80;;
75758;SDS011;64371;47.566;19.086;2023-04-01T07:20:37;2.28;;;0.70;;
75758;SDS011;64371;47.566;19.086;2023-04-01T07:23:42;2.15;;;0.98;;
75758;SDS011;64371;47.566;19.086;2023-04-01T07:27:08;2.60;;;0.80;;
75758;SDS011;64371;47.566;19.086;2023-04-01T07:30:18;2.25;;;0.80;;
75758;SDS011;64371;47.566;19.086;2023-04-01T07:33:25;1.95;;;0.80;;
75758;SDS011;64371;47.566;19.086;2023-04-01T07:36:47;2.05;;;1.08;;
75758;SDS011;64371;47.566;19.086;2023-04-01T07:43:39;2.10;;;0.87;;
75758;SDS011;64371;47.566;19.086;2023-04-01T07:50:29;2.78;;;0.80;;
75758;SDS011;64371;47.566;19.086;2023-04-01T07:53:41;1.25;;;0.90;;
75758;SDS011;64371;47.566;19.086;2023-04-01T07:56:51;1.80;;;0.75;;
75758;SDS011;64371;47.566;19.086;2023-04-01T08:00:40;2.60;;;0.90;;
75758;SDS011;64371;47.566;19.086;2023-04-01T08:04:13;2.22;;;1.02;;
75758;SDS011;64371;47.566;19.086;2023-04-01T08:07:28;2.03;;;0.90;;
75758;SDS011;64371;47.566;19.086;2023-04-01T08:10:56;2.10;;;0.90;;
75758;SDS011;64371;47.566;19.086;2023-04-01T08:22:02;1.60;;;1.10;;
75758;SDS011;64371;47.566;19.086;2023-04-01T08:28:03;1.60;;;0.75;;
75758;SDS011;64371;47.566;19.086;2023-04-01T08:34:44;1.67;;;0.70;;
75758;SDS011;64371;47.566;19.086;2023-04-01T08:38:12;3.03;;;0.50;;
75758;SDS011;64371;47.566;19.086;2023-04-01T08:45:18;1.83;;;0.35;;
75758;SDS011;64371;47.566;19.086;2023-04-01T08:48:36;0.57;;;0.43;;
75758;SDS011;64371;47.566;19.086;2023-04-01T09:05:36;2.30;;;0.70;;
75758;SDS011;64371;47.566;19.086;2023-04-01T09:16:13;2.85;;;0.90;;
75758;SDS011;64371;47.566;19.086;2023-04-01T09:29:35;1.52;;;0.93;;
75758;SDS011;64371;47.566;19.086;2023-04-01T09:42:51;4.47;;;1.50;;
75758;SDS011;64371;47.566;19.086;2023-04-01T09:46:33;3.42;;;1.25;;
75758;SDS011;64371;47.566;19.086;2023-04-01T09:56:37;27.98;;;9.13;;
75758;SDS011;64371;47.566;19.086;2023-04-01T10:03:30;20.23;;;9.10;;
75758;SDS011;64371;47.566;19.086;2023-04-01T10:20:55;5.75;;;1.98;;
75758;SDS011;64371;47.566;19.086;2023-04-01T10:55:54;5.13;;;3.50;;
75758;SDS011;64371;47.566;19.086;2023-04-01T11:04:10;6.80;;;2.75;;
75758;SDS011;64371;47.566;19.086;2023-04-01T11:18:07;2.50;;;1.02;;
75758;SDS011;64371;47.566;19.086;2023-04-01T11:28:46;3.50;;;1.10;;
75758;SDS011;64371;47.566;19.086;2023-04-01T11:32:14;4.97;;;0.95;;
75758;SDS011;64371;47.566;19.086;2023-04-01T11:35:42;2.50;;;0.77;;
75758;SDS011;64371;47.566;19.086;2023-04-01T11:43:06;3.15;;;0.95;;
75758;SDS011;64371;47.566;19.086;2023-04-01T12:00:55;2.45;;;1.40;;
75758;SDS011;64371;47.566;19.086;2023-04-01T12:14:22;1.38;;;0.80;;
75758;SDS011;64371;47.566;19.086;2023-04-01T12:21:35;2.80;;;1.10;;
75758;SDS011;64371;47.566;19.086;2023-04-01T12:28:19;1.60;;;0.60;;
75758;SDS011;64371;47.566;19.086;2023-04-01T12:31:53;2.45;;;1.02;;
75758;SDS011;64371;47.566;19.086;2023-04-01T12:55:41;0.90;;;0.50;;
75758;SDS011;64371;47.566;19.086;2023-04-01T13:02:09;1.63;;;0.63;;
75758;SDS011;64371;47.566;19.086;2023-04-01T13:05:32;3.03;;;0.75;;
75758;SDS011;64371;47.566;19.086;2023-04-01T13:12:29;4.23;;;0.97;;
75758;SDS011;64371;47.566;19.086;2023-04-01T13:22:03;3.63;;;0.70;;
75758;SDS011;64371;47.566;19.086;2023-04-01T13:25:24;2.38;;;0.52;;
75758;SDS011;64371;47.566;19.086;2023-04-01T13:28:43;1.50;;;0.50;;
75758;SDS011;64371;47.566;19.086;2023-04-01T13:36:33;2.08;;;0.75;;
75758;SDS011;64371;47.566;19.086;2023-04-01T13:42:40;0.95;;;0.32;;
75758;SDS011;64371;47.566;19.086;2023-04-01T14:05:46;1.40;;;0.80;;
75758;SDS011;64371;47.566;19.086;2023-04-01T14:12:43;2.60;;;0.93;;
75758;SDS011;64371;47.566;19.086;2023-04-01T14:33:40;1.75;;;0.50;;
75758;SDS011;64371;47.566;19.086;2023-04-01T14:50:17;1.73;;;0.70;;
75758;SDS011;64371;47.566;19.086;2023-04-01T14:53:31;1.37;;;0.60;;
75758;SDS011;64371;47.566;19.086;2023-04-01T14:56:42;1.20;;;0.52;;
75758;SDS011;64371;47.566;19.086;2023-04-01T15:02:57;1.95;;;0.43;;
75758;SDS011;64371;47.566;19.086;2023-04-01T15:09:54;1.80;;;1.00;;
75758;SDS011;64371;47.566;19.086;2023-04-01T15:13:31;1.55;;;0.90;;
75758;SDS011;64371;47.566;19.086;2023-04-01T15:26:46;1.20;;;0.57;;
75758;SDS011;64371;47.566;19.086;2023-04-01T15:37:09;1.08;;;0.40;;
75758;SDS011;64371;47.566;19.086;2023-04-01T15:40:36;2.50;;;0.50;;
75758;SDS011;64371;47.566;19.086;2023-04-01T15:43:48;2.20;;;0.57;;
75758;SDS011;64371;47.566;19.086;2023-04-01T15:46:54;1.77;;;0.65;;
75758;SDS011;64371;47.566;19.086;2023-04-01T15:50:12;0.50;;;0.35;;
75758;SDS011;64371;47.566;19.086;2023-04-01T15:53:44;1.02;;;0.50;;
75758;SDS011;64371;47.566;19.086;2023-04-01T15:56:52;1.75;;;0.47;;
75758;SDS011;64371;47.566;19.086;2023-04-01T16:09:55;1.67;;;0.45;;
75758;SDS011;64371;47.566;19.086;2023-04-01T16:13:15;1.00;;;0.55;;
75758;SDS011;64371;47.566;19.086;2023-04-01T16:19:59;1.92;;;0.50;;
75758;SDS011;64371;47.566;19.086;2023-04-01T16:26:59;2.50;;;0.30;;
75758;SDS011;64371;47.566;19.086;2023-04-01T16:37:31;1.27;;;0.50;;
75758;SDS011;64371;47.566;19.086;2023-04-01T16:43:50;2.08;;;0.47;;
75758;SDS011;64371;47.566;19.086;2023-04-01T16:46:58;1.42;;;0.47;;
75758;SDS011;64371;47.566;19.086;2023-04-01T16:50:22;1.43;;;0.37;;
75758;SDS011;64371;47.566;19.086;2023-04-01T16:53:43;2.60;;;0.50;;
75758;SDS011;64371;47.566;19.086;2023-04-01T16:57:03;2.03;;;0.60;;
75758;SDS011;64371;47.566;19.086;2023-04-01T17:00:28;2.40;;;0.50;;
75758;SDS011;64371;47.566;19.086;2023-04-01T17:03:43;1.20;;;0.60;;
75758;SDS011;64371;47.566;19.086;2023-04-01T17:17:07;1.73;;;0.77;;
75758;SDS011;64371;47.566;19.086;2023-04-01T17:23:51;2.13;;;0.63;;
75758;SDS011;64371;47.566;19.086;2023-04-01T17:27:03;1.45;;;0.50;;
75758;SDS011;64371;47.566;19.086;2023-04-01T17:33:38;0.82;;;0.50;;
75758;SDS011;64371;47.566;19.086;2023-04-01T17:40:33;1.10;;;0.40;;
75758;SDS011;64371;47.566;19.086;2023-04-01T18:00:01;2.70;;;1.20;;
75758;SDS011;64371;47.566;19.086;2023-04-01T18:06:54;6.53;;;2.97;;
75758;SDS011;64371;47.566;19.086;2023-04-01T18:13:41;2.17;;;1.07;;
75758;SDS011;64371;47.566;19.086;2023-04-01T18:17:09;2.53;;;1.13;;
75758;SDS011;64371;47.566;19.086;2023-04-01T18:24:02;2.67;;;1.45;;
75758;SDS011;64371;47.566;19.086;2023-04-01T18:27:51;3.20;;;1.80;;
75758;SDS011;64371;47.566;19.086;2023-04-01T18:31:04;6.07;;;1.87;;
75758;SDS011;64371;47.566;19.086;2023-04-01T18:34:16;5.30;;;2.20;;
75758;SDS011;64371;47.566;19.086;2023-04-01T18:41:22;3.95;;;1.90;;
75758;SDS011;64371;47.566;19.086;2023-04-01T18:44:41;5.82;;;2.25;;
75758;SDS011;64371;47.566;19.086;2023-04-01T18:51:12;5.75;;;2.67;;
75758;SDS011;64371;47.566;19.086;2023-04-01T18:54:21;5.45;;;1.95;;
75758;SDS011;64371;47.566;19.086;2023-04-01T19:10:58;17.63;;;6.50;;
75758;SDS011;64371;47.566;19.086;2023-04-01T19:21:33;5.17;;;2.63;;
75758;SDS011;64371;47.566;19.086;2023-04-01T19:27:52;5.75;;;2.63;;
75758;SDS011;64371;47.566;19.086;2023-04-01T19:31:10;5.85;;;2.72;;
75758;SDS011;64371;47.566;19.086;2023-04-01T19:38:04;5.70;;;2.63;;
75758;SDS011;64371;47.566;19.086;2023-04-01T19:48:17;5.43;;;2.50;;
75758;SDS011;64371;47.566;19.086;2023-04-01T20:01:08;7.28;;;2.80;;
75758;SDS011;64371;47.566;19.086;2023-04-01T20:04:17;5.32;;;2.67;;
75758;SDS011;64371;47.566;19.086;2023-04-01T20:14:48;6.45;;;2.47;;
75758;SDS011;64371;47.566;19.086;2023-04-01T20:17:53;3.35;;;1.77;;
75758;SDS011;64371;47.566;19.086;2023-04-01T20:24:43;3.67;;;2.05;;
75758;SDS011;64371;47.566;19.086;2023-04-01T20:28:01;4.23;;;1.60;;
75758;SDS011;64371;47.566;19.086;2023-04-01T20:31:24;3.45;;;1.85;;
75758;SDS011;64371;47.566;19.086;2023-04-01T20:34:57;4.32;;;1.83;;
75758;SDS011;64371;47.566;19.086;2023-04-01T20:51:17;3.95;;;2.30;;
75758;SDS011;64371;47.566;19.086;2023-04-01T20:54:30;4.25;;;2.30;;
75758;SDS011;64371;47.566;19.086;2023-04-01T21:01:19;3.13;;;1.67;;
75758;SDS011;64371;47.566;19.086;2023-04-01T21:07:45;3.28;;;1.80;;
75758;SDS011;64371;47.566;19.086;2023-04-01T21:17:34;3.73;;;1.67;;
75758;SDS011;64371;47.566;19.086;2023-04-01T21:20:53;4.32;;;1.90;;
75758;SDS011;64371;47.566;19.086;2023-04-01T21:53:59;3.25;;;2.00;;
75758;SDS011;64371;47.566;19.086;2023-04-01T22:00:43;3.55;;;2.30;;
75758;SDS011;64371;47.566;19.086;2023-04-01T22:04:31;6.15;;;2.72;;
75758;SDS011;64371;47.566;19.086;2023-04-01T22:11:16;4.00;;;2.20;;
75758;SDS011;64371;47.566;19.086;2023-04-01T22:17:52;5.07;;;2.15;;
75758;SDS011;64371;47.566;19.086;2023-04-01T22:21:07;4.70;;;1.98;;
75758;SDS011;64371;47.566;19.086;2023-04-01T22:30:59;4.43;;;2.20;;
75758;SDS011;64371;47.566;19.086;2023-04-01T22:34:09;5.30;;;2.30;;
75758;SDS011;64371;47.566;19.086;2023-04-01T22:37:23;3.38;;;2.10;;
75758;SDS011;64371;47.566;19.086;2023-04-01T22:43:39;3.08;;;1.95;;
75758;SDS011;64371;47.566;19.086;2023-04-01T22:46:46;3.72;;;2.10;;
75758;SDS011;64371;47.566;19.086;2023-04-01T22:50:14;3.88;;;2.30;;
75758;SDS011;64371;47.566;19.086;2023-04-01T22:56:50;2.97;;;1.83;;
75758;SDS011;64371;47.566;19.086;2023-04-01T23:06:35;2.67;;;1.80;;
75758;SDS011;64371;47.566;19.086;2023-04-01T23:09:43;3.55;;;1.67;;
75758;SDS011;64371;47.566;19.086;2023-04-01T23:12:45;3.10;;;1.73;;
75758;SDS011;64371;47.566;19.086;2023-04-01T23:15:51;2.90;;;1.40;;
75758;SDS011;64371;47.566;19.086;2023-04-01T23:19:01;1.77;;;1.20;;
75758;SDS011;64371;47.566;19.086;2023-04-01T23:22:06;2.20;;;1.30;;
75758;SDS011;64371;47.566;19.086;2023-04-01T23:28:48;1.60;;;1.10;;
75758;SDS011;64371;47.566;19.086;2023-04-01T23:32:02;2.80;;;1.48;;
75758;SDS011;64371;47.566;19.086;2023-04-01T23:35:11;3.42;;;1.30;;
75758;SDS011;64371;47.566;19.086;2023-04-01T23:38:19;2.35;;;1.17;;
75758;SDS011;64371;47.566;19.086;2023-04-01T23:44:33;2.03;;;1.13;;
75758;SDS011;64371;47.566;19.086;2023-04-01T23:47:38;2.63;;;1.00;;
75758;SDS011;64371;47.566;19.086;2023-04-01T23:50:43;1.58;;;1.00;;
75758;SDS011;64371;47.566;19.086;2023-04-01T23:53:47;2.08;;;1.10;;
75758;SDS011;64371;47.566;19.086;2023-04-01T23:57:14;1.73;;;1.08;;
